sensor_id;sensor_type;location;lat;lon;timestamp;pressure;altitude;pressure_sealevel;temperature;humidity
39613;BME280;25303;48.896;13.342;2023-02-11T00:00:46;94437.38;;;1.20;47.68
39613;BME280;25303;48.896;13.342;2023-02-11T00:03:29;94436.47;;;1.21;47.54
39613;BME280;25303;48.896;13.342;2023-02-11T00:06:14;94438.06;;;1.24;47.58
39613;BME280;25303;48.896;13.342;2023-02-11T00:08:57;94439.78;;;1.24;47.50
39613;BME280;25303;48.896;13.342;2023-02-11T00:11:40;94429.63;;;1.24;47.66
39613;BME280;25303;48.896;13.342;2023-02-11T00:14:23;94434.72;;;1.24;47.80
39613;BME280;25303;48.896;13.342;2023-02-11T00:17:06;94427.97;;;1.23;47.52
39613;BME280;25303;48.896;13.342;2023-02-11T00:19:49;94427.34;;;1.17;47.69
39613;BME280;25303;48.896;13.342;2023-02-11T00:22:33;94422.34;;;1.16;47.76
39613;BME280;25303;48.896;13.342;2023-02-11T00:25:16;94419.78;;;1.16;47.72
39613;BME280;25303;48.896;13.342;2023-02-11T00:27:59;94423.25;;;1.13;47.72
39613;BME280;25303;48.896;13.342;2023-02-11T00:30:42;94414.94;;;1.10;47.61
39613;BME280;25303;48.896;13.342;2023-02-11T00:33:25;94421.97;;;1.03;47.83
39613;BME280;25303;48.896;13.342;2023-02-11T00:36:10;94418.56;;;1.04;48.03
39613;BME280;25303;48.896;13.342;2023-02-11T00:38:56;94426.88;;;1.08;48.07
39613;BME280;25303;48.896;13.342;2023-02-11T00:41:40;94420.97;;;1.07;47.98
39613;BME280;25303;48.896;13.342;2023-02-11T00:44:22;94425.97;;;1.09;48.04
39613;BME280;25303;48.896;13.342;2023-02-11T00:47:05;94425.13;;;1.08;48.01
39613;BME280;25303;48.896;13.342;2023-02-11T00:49:49;94425.13;;;1.08;48.07
39613;BME280;25303;48.896;13.342;2023-02-11T00:52:33;94428.59;;;1.07;48.03
39613;BME280;25303;48.896;13.342;2023-02-11T00:55:17;94428.72;;;1.04;47.90
39613;BME280;25303;48.896;13.342;2023-02-11T00:58:00;94435.78;;;0.96;48.51
39613;BME280;25303;48.896;13.342;2023-02-11T01:00:43;94422.41;;;0.92;48.37
39613;BME280;25303;48.896;13.342;2023-02-11T01:03:27;94429.03;;;0.95;48.47
39613;BME280;25303;48.896;13.342;2023-02-11T01:06:10;94431.59;;;0.95;48.32
39613;BME280;25303;48.896;13.342;2023-02-11T01:08:53;94427.34;;;0.95;48.59
39613;BME280;25303;48.896;13.342;2023-02-11T01:11:38;94414.56;;;0.98;48.59
39613;BME280;25303;48.896;13.342;2023-02-11T01:14:20;94411.00;;;1.02;48.62
39613;BME280;25303;48.896;13.342;2023-02-11T01:17:05;94405.75;;;1.07;48.64
39613;BME280;25303;48.896;13.342;2023-02-11T01:19:48;94411.56;;;1.09;48.53
39613;BME280;25303;48.896;13.342;2023-02-11T01:22:30;94407.38;;;1.08;48.46
39613;BME280;25303;48.896;13.342;2023-02-11T01:25:14;94403.22;;;1.07;48.48
39613;BME280;25303;48.896;13.342;2023-02-11T01:27:59;94400.72;;;1.05;48.59
39613;BME280;25303;48.896;13.342;2023-02-11T01:30:44;94404.13;;;1.06;48.48
39613;BME280;25303;48.896;13.342;2023-02-11T01:33:28;94397.31;;;1.06;48.84
39613;BME280;25303;48.896;13.342;2023-02-11T01:36:12;94390.34;;;1.12;48.78
39613;BME280;25303;48.896;13.342;2023-02-11T01:38:55;94387.75;;;1.13;48.71
39613;BME280;25303;48.896;13.342;2023-02-11T01:41:37;94390.34;;;1.12;48.69
39613;BME280;25303;48.896;13.342;2023-02-11T01:44:27;94386.94;;;1.13;48.76
39613;BME280;25303;48.896;13.342;2023-02-11T01:47:11;94384.44;;;1.11;48.77
39613;BME280;25303;48.896;13.342;2023-02-11T01:49:56;94383.69;;;1.09;48.65
39613;BME280;25303;48.896;13.342;2023-02-11T01:52:41;94372.72;;;1.09;48.76
39613;BME280;25303;48.896;13.342;2023-02-11T01:55:28;94374.41;;;1.08;48.78
39613;BME280;25303;48.896;13.342;2023-02-11T01:58:31;94373.69;;;1.06;48.80
39613;BME280;25303;48.896;13.342;2023-02-11T02:01:20;94362.88;;;1.01;48.85
39613;BME280;25303;48.896;13.342;2023-02-11T02:04:07;94367.66;;;1.09;48.64
39613;BME280;25303;48.896;13.342;2023-02-11T02:06:54;94363.38;;;1.09;48.57
39613;BME280;25303;48.896;13.342;2023-02-11T02:09:42;94359.91;;;1.12;48.69
39613;BME280;25303;48.896;13.342;2023-02-11T02:12:26;94359.84;;;1.13;48.61
39613;BME280;25303;48.896;13.342;2023-02-11T02:15:27;94357.63;;;1.05;48.66
39613;BME280;25303;48.896;13.342;2023-02-11T02:18:21;94350.97;;;1.03;48.77
39613;BME280;25303;48.896;13.342;2023-02-11T02:21:21;94350.97;;;1.03;48.94
39613;BME280;25303;48.896;13.342;2023-02-11T02:24:43;94350.13;;;1.02;48.98
39613;BME280;25303;48.896;13.342;2023-02-11T02:27:41;94337.44;;;1.02;48.86
39613;BME280;25303;48.896;13.342;2023-02-11T02:30:50;94348.47;;;1.01;48.93
39613;BME280;25303;48.896;13.342;2023-02-11T02:33:43;94337.66;;;0.98;48.91
39613;BME280;25303;48.896;13.342;2023-02-11T02:36:31;94327.50;;;0.98;48.96
39613;BME280;25303;48.896;13.342;2023-02-11T02:39:20;94323.28;;;0.98;49.04
39613;BME280;25303;48.896;13.342;2023-02-11T02:42:06;94324.16;;;0.97;48.53
39613;BME280;25303;48.896;13.342;2023-02-11T02:44:49;94316.84;;;0.89;48.86
39613;BME280;25303;48.896;13.342;2023-02-11T02:47:33;94325.28;;;0.90;49.01
39613;BME280;25303;48.896;13.342;2023-02-11T02:50:22;94327.88;;;0.88;49.01
39613;BME280;25303;48.896;13.342;2023-02-11T02:53:12;94321.16;;;0.87;49.49
39613;BME280;25303;48.896;13.342;2023-02-11T02:56:03;94317.66;;;0.90;49.14
39613;BME280;25303;48.896;13.342;2023-02-11T02:58:55;94329.38;;;0.93;49.10
39613;BME280;25303;48.896;13.342;2023-02-11T03:01:52;94328.50;;;0.94;49.01
39613;BME280;25303;48.896;13.342;2023-02-11T03:04:46;94317.56;;;0.93;49.17
39613;BME280;25303;48.896;13.342;2023-02-11T03:07:39;94321.75;;;0.94;49.19
39613;BME280;25303;48.896;13.342;2023-02-11T03:10:26;94317.47;;;0.95;49.30
39613;BME280;25303;48.896;13.342;2023-02-11T03:13:11;94317.44;;;0.96;49.16
39613;BME280;25303;48.896;13.342;2023-02-11T03:15:59;94324.19;;;0.96;49.16
39613;BME280;25303;48.896;13.342;2023-02-11T03:18:48;94327.69;;;0.93;49.10
39613;BME280;25303;48.896;13.342;2023-02-11T03:21:33;94321.03;;;0.90;49.40
39613;BME280;25303;48.896;13.342;2023-02-11T03:24:22;94317.56;;;0.93;49.22
39613;BME280;25303;48.896;13.342;2023-02-11T03:27:11;94312.38;;;0.96;49.41
39613;BME280;25303;48.896;13.342;2023-02-11T03:29:59;94314.59;;;1.04;49.39
39613;BME280;25303;48.896;13.342;2023-02-11T03:32:48;94316.91;;;1.09;49.52
39613;BME280;25303;48.896;13.342;2023-02-11T03:35:36;94309.94;;;1.14;49.50
39613;BME280;25303;48.896;13.342;2023-02-11T03:38:22;94309.06;;;1.15;49.25
39613;BME280;25303;48.896;13.342;2023-02-11T03:41:09;94312.50;;;1.14;49.03
39613;BME280;25303;48.896;13.342;2023-02-11T03:43:55;94308.31;;;1.13;49.33
39613;BME280;25303;48.896;13.342;2023-02-11T03:46:40;94310.72;;;1.16;49.34
39613;BME280;25303;48.896;13.342;2023-02-11T03:49:27;94318.38;;;1.14;49.30
39613;BME280;25303;48.896;13.342;2023-02-11T03:52:10;94317.56;;;1.14;49.50
39613;BME280;25303;48.896;13.342;2023-02-11T03:54:56;94317.41;;;1.17;49.27
39613;BME280;25303;48.896;13.342;2023-02-11T03:57:43;94318.25;;;1.17;49.31
39613;BME280;25303;48.896;13.342;2023-02-11T04:00:28;94318.25;;;1.17;49.48
39613;BME280;25303;48.896;13.342;2023-02-11T04:03:11;94320.09;;;1.14;49.66
39613;BME280;25303;48.896;13.342;2023-02-11T04:05:54;94312.41;;;1.15;49.28
39613;BME280;25303;48.896;13.342;2023-02-11T04:08:37;94319.94;;;1.17;49.22
39613;BME280;25303;48.896;13.342;2023-02-11T04:11:20;94320.78;;;1.17;49.23
39613;BME280;25303;48.896;13.342;2023-02-11T04:14:04;94320.03;;;1.15;49.17
39613;BME280;25303;48.896;13.342;2023-02-11T04:16:47;94310.75;;;1.14;49.32
39613;BME280;25303;48.896;13.342;2023-02-11T04:19:29;94311.66;;;1.13;49.21
39613;BME280;25303;48.896;13.342;2023-02-11T04:22:12;94312.50;;;1.14;49.24
39613;BME280;25303;48.896;13.342;2023-02-11T04:24:55;94315.78;;;1.16;49.25
39613;BME280;25303;48.896;13.342;2023-02-11T04:27:38;94305.56;;;1.17;49.12
39613;BME280;25303;48.896;13.342;2023-02-11T04:30:23;94294.66;;;1.15;49.17
39613;BME280;25303;48.896;13.342;2023-02-11T04:33:06;94293.00;;;1.14;49.29
39613;BME280;25303;48.896;13.342;2023-02-11T04:35:49;94296.56;;;1.10;49.25
39613;BME280;25303;48.896;13.342;2023-02-11T04:38:32;94294.97;;;1.08;49.43
39613;BME280;25303;48.896;13.342;2023-02-11T04:41:15;94298.53;;;1.03;49.48
39613;BME280;25303;48.896;13.342;2023-02-11T04:43:58;94294.28;;;1.04;49.52
39613;BME280;25303;48.896;13.342;2023-02-11T04:46:42;94306.84;;;1.07;49.45
39613;BME280;25303;48.896;13.342;2023-02-11T04:49:25;94298.28;;;1.10;49.43
39613;BME280;25303;48.896;13.342;2023-02-11T04:52:08;94307.66;;;1.08;49.38
39613;BME280;25303;48.896;13.342;2023-02-11T04:54:51;94300.13;;;1.06;49.29
39613;BME280;25303;48.896;13.342;2023-02-11T04:57:33;94298.41;;;1.06;49.28
39613;BME280;25303;48.896;13.342;2023-02-11T05:00:16;94290.66;;;1.10;49.56
39613;BME280;25303;48.896;13.342;2023-02-11T05:03:01;94290.47;;;1.14;49.51
39613;BME280;25303;48.896;13.342;2023-02-11T05:05:43;94286.94;;;1.18;49.57
39613;BME280;25303;48.896;13.342;2023-02-11T05:08:26;94275.00;;;1.20;49.54
39613;BME280;25303;48.896;13.342;2023-02-11T05:11:14;94280.00;;;1.22;49.46
39613;BME280;25303;48.896;13.342;2023-02-11T05:13:58;94279.19;;;1.21;49.43
39613;BME280;25303;48.896;13.342;2023-02-11T05:16:41;94277.59;;;1.19;49.54
39613;BME280;25303;48.896;13.342;2023-02-11T05:19:25;94274.13;;;1.21;49.37
39613;BME280;25303;48.896;13.342;2023-02-11T05:22:08;94263.97;;;1.21;49.60
39613;BME280;25303;48.896;13.342;2023-02-11T05:24:51;94271.44;;;1.25;49.50
39613;BME280;25303;48.896;13.342;2023-02-11T05:27:33;94269.72;;;1.25;49.49
39613;BME280;25303;48.896;13.342;2023-02-11T05:30:16;94263.69;;;1.28;49.14
39613;BME280;25303;48.896;13.342;2023-02-11T05:32:59;94253.50;;;1.29;49.45
39613;BME280;25303;48.896;13.342;2023-02-11T05:35:43;94268.59;;;1.32;49.54
39613;BME280;25303;48.896;13.342;2023-02-11T05:38:26;94270.97;;;1.35;49.40
39613;BME280;25303;48.896;13.342;2023-02-11T05:41:10;94265.91;;;1.35;49.37
39613;BME280;25303;48.896;13.342;2023-02-11T05:43:53;94259.13;;;1.36;49.40
39613;BME280;25303;48.896;13.342;2023-02-11T05:46:35;94264.13;;;1.38;49.35
39613;BME280;25303;48.896;13.342;2023-02-11T05:49:18;94262.44;;;1.38;49.33
39613;BME280;25303;48.896;13.342;2023-02-11T05:52:03;94259.81;;;1.40;49.30
39613;BME280;25303;48.896;13.342;2023-02-11T05:54:46;94254.81;;;1.38;49.35
39613;BME280;25303;48.896;13.342;2023-02-11T05:57:28;94259.72;;;1.41;49.43
39613;BME280;25303;48.896;13.342;2023-02-11T06:00:13;94271.53;;;1.42;49.27
39613;BME280;25303;48.896;13.342;2023-02-11T06:02:56;94266.53;;;1.41;49.66
39613;BME280;25303;48.896;13.342;2023-02-11T06:05:39;94264.56;;;1.47;49.34
39613;BME280;25303;48.896;13.342;2023-02-11T06:08:25;94287.25;;;1.50;49.28
39613;BME280;25303;48.896;13.342;2023-02-11T06:11:07;94275.38;;;1.51;49.19
39613;BME280;25303;48.896;13.342;2023-02-11T06:13:50;94282.94;;;1.52;49.21
39613;BME280;25303;48.896;13.342;2023-02-11T06:16:33;94268.53;;;1.53;49.16
39613;BME280;25303;48.896;13.342;2023-02-11T06:19:16;94276.09;;;1.55;49.15
39613;BME280;25303;48.896;13.342;2023-02-11T06:21:59;94271.06;;;1.53;49.21
39613;BME280;25303;48.896;13.342;2023-02-11T06:24:43;94262.44;;;1.57;49.14
39613;BME280;25303;48.896;13.342;2023-02-11T06:27:41;94260.72;;;1.58;49.12
39613;BME280;25303;48.896;13.342;2023-02-11T06:30:24;94261.63;;;1.57;49.13
39613;BME280;25303;48.896;13.342;2023-02-11T06:33:07;94267.78;;;1.51;49.01
39613;BME280;25303;48.896;13.342;2023-02-11T06:35:50;94281.16;;;1.55;49.11
39613;BME280;25303;48.896;13.342;2023-02-11T06:38:33;94268.28;;;1.59;49.11
39613;BME280;25303;48.896;13.342;2023-02-11T06:41:17;94288.25;;;1.67;49.00
39613;BME280;25303;48.896;13.342;2023-02-11T06:44:01;94291.53;;;1.69;48.96
39613;BME280;25303;48.896;13.342;2023-02-11T06:46:44;94297.44;;;1.70;49.08
39613;BME280;25303;48.896;13.342;2023-02-11T06:49:27;94295.72;;;1.70;48.93
39613;BME280;25303;48.896;13.342;2023-02-11T06:52:09;94293.06;;;1.73;48.85
39613;BME280;25303;48.896;13.342;2023-02-11T06:54:52;94301.41;;;1.75;49.05
39613;BME280;25303;48.896;13.342;2023-02-11T06:57:37;94305.94;;;1.69;48.84
39613;BME280;25303;48.896;13.342;2023-02-11T07:00:20;94293.31;;;1.67;48.97
39613;BME280;25303;48.896;13.342;2023-02-11T07:03:03;94296.50;;;1.72;49.00
39613;BME280;25303;48.896;13.342;2023-02-11T07:05:45;94291.25;;;1.75;48.99
39613;BME280;25303;48.896;13.342;2023-02-11T07:08:29;94282.69;;;1.78;49.03
39613;BME280;25303;48.896;13.342;2023-02-11T07:11:13;94286.03;;;1.78;48.99
39613;BME280;25303;48.896;13.342;2023-02-11T07:14:00;94292.78;;;1.79;49.15
39613;BME280;25303;48.896;13.342;2023-02-11T07:16:43;94293.53;;;1.81;48.79
39613;BME280;25303;48.896;13.342;2023-02-11T07:19:26;94290.19;;;1.81;48.71
39613;BME280;25303;48.896;13.342;2023-02-11T07:22:09;94302.03;;;1.80;48.67
39613;BME280;25303;48.896;13.342;2023-02-11T07:24:52;94315.63;;;1.79;48.96
39613;BME280;25303;48.896;13.342;2023-02-11T07:27:35;94296.81;;;1.84;49.18
39613;BME280;25303;48.896;13.342;2023-02-11T07:30:19;94303.44;;;1.88;49.16
39613;BME280;25303;48.896;13.342;2023-02-11T07:33:02;94305.66;;;1.94;49.04
39613;BME280;25303;48.896;13.342;2023-02-11T07:35:45;94308.16;;;1.95;48.65
39613;BME280;25303;48.896;13.342;2023-02-11T07:38:27;94296.41;;;1.93;49.00
39613;BME280;25303;48.896;13.342;2023-02-11T07:41:12;94297.16;;;1.95;48.99
39613;BME280;25303;48.896;13.342;2023-02-11T07:43:55;94297.78;;;2.00;49.07
39613;BME280;25303;48.896;13.342;2023-02-11T07:46:39;94299.34;;;2.03;49.04
39613;BME280;25303;48.896;13.342;2023-02-11T07:49:25;94293.38;;;2.04;49.16
39613;BME280;25303;48.896;13.342;2023-02-11T07:52:08;94294.00;;;2.09;49.32
39613;BME280;25303;48.896;13.342;2023-02-11T07:54:51;94283.72;;;2.12;49.48
39613;BME280;25303;48.896;13.342;2023-02-11T07:57:34;94291.78;;;2.20;49.56
39613;BME280;25303;48.896;13.342;2023-02-11T08:00:17;94280.47;;;2.27;49.67
39613;BME280;25303;48.896;13.342;2023-02-11T08:03:03;94287.06;;;2.32;50.18
39613;BME280;25303;48.896;13.342;2023-02-11T08:05:45;94295.94;;;2.40;49.77
39613;BME280;25303;48.896;13.342;2023-02-11T08:08:28;94300.00;;;2.45;49.69
39613;BME280;25303;48.896;13.342;2023-02-11T08:11:13;94301.50;;;2.49;49.49
39613;BME280;25303;48.896;13.342;2023-02-11T08:13:56;94305.84;;;2.47;49.88
39613;BME280;25303;48.896;13.342;2023-02-11T08:16:39;94306.09;;;2.40;49.65
39613;BME280;25303;48.896;13.342;2023-02-11T08:19:24;94302.66;;;2.41;49.87
39613;BME280;25303;48.896;13.342;2023-02-11T08:22:07;94298.22;;;2.47;50.05
39613;BME280;25303;48.896;13.342;2023-02-11T08:24:50;94284.16;;;2.57;49.89
39613;BME280;25303;48.896;13.342;2023-02-11T08:27:33;94284.09;;;2.58;50.26
39613;BME280;25303;48.896;13.342;2023-02-11T08:30:16;94280.34;;;2.66;50.25
39613;BME280;25303;48.896;13.342;2023-02-11T08:32:59;94281.81;;;2.71;49.98
39613;BME280;25303;48.896;13.342;2023-02-11T08:35:43;94276.25;;;2.81;50.19
39613;BME280;25303;48.896;13.342;2023-02-11T08:38:26;94272.59;;;2.86;50.13
39613;BME280;25303;48.896;13.342;2023-02-11T08:41:09;94284.88;;;2.96;50.11
39613;BME280;25303;48.896;13.342;2023-02-11T08:43:52;94292.19;;;3.02;50.10
39613;BME280;25303;48.896;13.342;2023-02-11T08:46:35;94286.66;;;3.11;50.11
39613;BME280;25303;48.896;13.342;2023-02-11T08:49:18;94280.50;;;3.15;50.30
39613;BME280;25303;48.896;13.342;2023-02-11T08:52:02;94284.25;;;3.26;50.00
39613;BME280;25303;48.896;13.342;2023-02-11T08:54:45;94279.53;;;3.36;50.54
39613;BME280;25303;48.896;13.342;2023-02-11T08:57:28;94300.91;;;3.49;49.99
39613;BME280;25303;48.896;13.342;2023-02-11T09:00:12;94297.06;;;3.58;50.02
39613;BME280;25303;48.896;13.342;2023-02-11T09:02:55;94288.78;;;3.70;49.75
39613;BME280;25303;48.896;13.342;2023-02-11T09:05:40;94275.75;;;3.76;49.60
39613;BME280;25303;48.896;13.342;2023-02-11T09:08:24;94278.78;;;3.83;49.89
39613;BME280;25303;48.896;13.342;2023-02-11T09:11:07;94280.09;;;3.90;49.41
39613;BME280;25303;48.896;13.342;2023-02-11T09:13:50;94278.97;;;3.96;49.08
39613;BME280;25303;48.896;13.342;2023-02-11T09:16:35;94287.25;;;4.00;49.13
39613;BME280;25303;48.896;13.342;2023-02-11T09:19:18;94294.97;;;3.98;49.19
39613;BME280;25303;48.896;13.342;2023-02-11T09:22:01;94283.81;;;4.01;48.98
39613;BME280;25303;48.896;13.342;2023-02-11T09:24:45;94293.09;;;4.02;49.01
39613;BME280;25303;48.896;13.342;2023-02-11T09:27:28;94312.59;;;4.03;49.01
39613;BME280;25303;48.896;13.342;2023-02-11T09:30:12;94308.16;;;4.06;49.11
39613;BME280;25303;48.896;13.342;2023-02-11T09:32:54;94307.25;;;4.07;48.90
39613;BME280;25303;48.896;13.342;2023-02-11T09:35:37;94308.78;;;4.10;48.94
39613;BME280;25303;48.896;13.342;2023-02-11T09:38:20;94314.78;;;4.09;49.11
39613;BME280;25303;48.896;13.342;2023-02-11T09:41:05;94314.06;;;4.07;49.11
39613;BME280;25303;48.896;13.342;2023-02-11T09:43:51;94314.25;;;4.04;49.16
39613;BME280;25303;48.896;13.342;2023-02-11T09:46:37;94311.00;;;4.00;49.28
39613;BME280;25303;48.896;13.342;2023-02-11T09:49:24;94305.09;;;4.00;49.41
39613;BME280;25303;48.896;13.342;2023-02-11T09:52:15;94307.81;;;3.97;49.57
39613;BME280;25303;48.896;13.342;2023-02-11T09:55:02;94303.38;;;4.00;49.37
39613;BME280;25303;48.896;13.342;2023-02-11T09:57:47;94298.19;;;4.02;49.72
39613;BME280;25303;48.896;13.342;2023-02-11T10:00:35;94302.22;;;4.06;49.54
39613;BME280;25303;48.896;13.342;2023-02-11T10:06:51;94283.47;;;4.23;49.41
39613;BME280;25303;48.896;13.342;2023-02-11T10:09:46;94275.59;;;4.28;49.52
39613;BME280;25303;48.896;13.342;2023-02-11T10:12:40;94283.88;;;4.31;49.32
39613;BME280;25303;48.896;13.342;2023-02-11T10:15:36;94282.75;;;4.37;49.35
39613;BME280;25303;48.896;13.342;2023-02-11T10:18:36;94280.91;;;4.39;49.45
39613;BME280;25303;48.896;13.342;2023-02-11T10:21:30;94286.69;;;4.43;49.51
39613;BME280;25303;48.896;13.342;2023-02-11T10:24:15;94278.94;;;4.44;49.53
39613;BME280;25303;48.896;13.342;2023-02-11T10:26:59;94269.22;;;4.51;49.69
39613;BME280;25303;48.896;13.342;2023-02-11T10:29:46;94275.97;;;4.52;49.56
39613;BME280;25303;48.896;13.342;2023-02-11T10:32:38;94271.59;;;4.54;49.64
39613;BME280;25303;48.896;13.342;2023-02-11T10:35:24;94266.34;;;4.57;49.77
39613;BME280;25303;48.896;13.342;2023-02-11T10:38:07;94277.94;;;4.63;49.71
39613;BME280;25303;48.896;13.342;2023-02-11T10:40:50;94277.50;;;4.70;49.70
39613;BME280;25303;48.896;13.342;2023-02-11T10:43:33;94261.28;;;4.71;49.81
39613;BME280;25303;48.896;13.342;2023-02-11T10:46:20;94255.84;;;4.78;49.80
39613;BME280;25303;48.896;13.342;2023-02-11T10:49:05;94256.31;;;4.84;49.90
39613;BME280;25303;48.896;13.342;2023-02-11T10:51:48;94251.41;;;4.96;49.79
39613;BME280;25303;48.896;13.342;2023-02-11T10:54:31;94244.97;;;5.05;49.80
39613;BME280;25303;48.896;13.342;2023-02-11T10:57:17;94242.69;;;5.14;49.80
39613;BME280;25303;48.896;13.342;2023-02-11T11:00:07;94245.16;;;5.30;50.03
39613;BME280;25303;48.896;13.342;2023-02-11T11:03:02;94234.78;;;5.62;49.93
39613;BME280;25303;48.896;13.342;2023-02-11T11:05:48;94243.41;;;5.89;49.51
39613;BME280;25303;48.896;13.342;2023-02-11T11:08:39;94241.22;;;6.12;49.36
39613;BME280;25303;48.896;13.342;2023-02-11T11:11:24;94248.16;;;6.37;48.84
39613;BME280;25303;48.896;13.342;2023-02-11T11:14:17;94243.00;;;6.51;48.43
39613;BME280;25303;48.896;13.342;2023-02-11T11:17:01;94236.50;;;6.73;47.94
39613;BME280;25303;48.896;13.342;2023-02-11T11:19:43;94237.53;;;6.83;47.30
39613;BME280;25303;48.896;13.342;2023-02-11T11:22:28;94238.06;;;6.89;47.21
39613;BME280;25303;48.896;13.342;2023-02-11T11:25:21;94231.72;;;6.94;47.17
39613;BME280;25303;48.896;13.342;2023-02-11T11:28:05;94223.97;;;7.09;46.88
39613;BME280;25303;48.896;13.342;2023-02-11T11:30:52;94221.50;;;7.20;46.77
39613;BME280;25303;48.896;13.342;2023-02-11T11:33:40;94224.06;;;7.33;46.81
39613;BME280;25303;48.896;13.342;2023-02-11T11:36:32;94223.34;;;7.31;46.61
39613;BME280;25303;48.896;13.342;2023-02-11T11:39:21;94208.22;;;7.28;46.51
39613;BME280;25303;48.896;13.342;2023-02-11T11:42:23;94198.16;;;7.25;46.07
39613;BME280;25303;48.896;13.342;2023-02-11T11:45:21;94219.06;;;7.32;46.41
39613;BME280;25303;48.896;13.342;2023-02-11T11:48:12;94209.53;;;7.34;46.28
39613;BME280;25303;48.896;13.342;2023-02-11T11:51:01;94200.41;;;7.29;45.99
39613;BME280;25303;48.896;13.342;2023-02-11T11:53:50;94195.59;;;7.25;45.92
39613;BME280;25303;48.896;13.342;2023-02-11T11:56:39;94201.84;;;7.21;45.58
39613;BME280;25303;48.896;13.342;2023-02-11T11:59:24;94206.56;;;7.14;45.83
39613;BME280;25303;48.896;13.342;2023-02-11T12:02:22;94206.34;;;7.04;45.77
39613;BME280;25303;48.896;13.342;2023-02-11T12:05:22;94212.16;;;6.93;45.96
39613;BME280;25303;48.896;13.342;2023-02-11T12:08:11;94215.03;;;6.89;45.90
39613;BME280;25303;48.896;13.342;2023-02-11T12:11:04;94209.31;;;6.85;46.02
39613;BME280;25303;48.896;13.342;2023-02-11T12:14:00;94206.34;;;6.78;45.76
39613;BME280;25303;48.896;13.342;2023-02-11T12:16:52;94206.53;;;6.75;45.81
39613;BME280;25303;48.896;13.342;2023-02-11T12:19:50;94203.25;;;6.73;45.91
39613;BME280;25303;48.896;13.342;2023-02-11T12:22:43;94204.25;;;6.71;45.84
39613;BME280;25303;48.896;13.342;2023-02-11T12:25:33;94202.31;;;6.74;45.77
39613;BME280;25303;48.896;13.342;2023-02-11T12:28:30;94187.97;;;6.72;45.69
39613;BME280;25303;48.896;13.342;2023-02-11T12:31:28;94185.41;;;6.72;45.27
39613;BME280;25303;48.896;13.342;2023-02-11T12:34:32;94185.13;;;6.76;45.53
39613;BME280;25303;48.896;13.342;2023-02-11T12:37:26;94183.78;;;6.83;45.84
39613;BME280;25303;48.896;13.342;2023-02-11T12:40:16;94177.44;;;6.89;45.81
39613;BME280;25303;48.896;13.342;2023-02-11T12:43:10;94182.78;;;6.99;45.59
39613;BME280;25303;48.896;13.342;2023-02-11T12:46:09;94165.28;;;6.93;45.26
39613;BME280;25303;48.896;13.342;2023-02-11T12:49:22;94162.50;;;6.83;45.00
39613;BME280;25303;48.896;13.342;2023-02-11T12:52:22;94171.19;;;6.80;45.29
39613;BME280;25303;48.896;13.342;2023-02-11T12:55:10;94174.59;;;6.81;45.48
39613;BME280;25303;48.896;13.342;2023-02-11T12:57:59;94176.31;;;6.80;45.38
39613;BME280;25303;48.896;13.342;2023-02-11T13:00:47;94172.84;;;6.81;45.62
39613;BME280;25303;48.896;13.342;2023-02-11T13:03:36;94174.78;;;6.78;45.33
39613;BME280;25303;48.896;13.342;2023-02-11T13:06:26;94178.88;;;6.80;45.41
39613;BME280;25303;48.896;13.342;2023-02-11T13:09:15;94181.94;;;6.73;45.32
39613;BME280;25303;48.896;13.342;2023-02-11T13:12:02;94161.03;;;6.66;45.57
39613;BME280;25303;48.896;13.342;2023-02-11T13:15:13;94165.97;;;6.69;45.79
39613;BME280;25303;48.896;13.342;2023-02-11T13:18:00;94172.53;;;6.73;45.98
39613;BME280;25303;48.896;13.342;2023-02-11T13:20:50;94187.16;;;6.71;46.04
39613;BME280;25303;48.896;13.342;2023-02-11T13:23:40;94175.28;;;6.70;46.15
39613;BME280;25303;48.896;13.342;2023-02-11T13:26:31;94165.06;;;6.70;46.23
39613;BME280;25303;48.896;13.342;2023-02-11T13:29:24;94170.16;;;6.70;46.32
39613;BME280;25303;48.896;13.342;2023-02-11T13:32:10;94166.81;;;6.69;46.35
39613;BME280;25303;48.896;13.342;2023-02-11T13:34:54;94158.19;;;6.71;46.58
39613;BME280;25303;48.896;13.342;2023-02-11T13:37:38;94150.31;;;6.74;46.51
39613;BME280;25303;48.896;13.342;2023-02-11T13:40:24;94156.75;;;6.79;46.28
39613;BME280;25303;48.896;13.342;2023-02-11T13:43:19;94157.78;;;6.77;46.54
39613;BME280;25303;48.896;13.342;2023-02-11T13:46:04;94164.13;;;6.71;46.57
39613;BME280;25303;48.896;13.342;2023-02-11T13:48:49;94159.22;;;6.68;46.63
39613;BME280;25303;48.896;13.342;2023-02-11T13:51:35;94157.25;;;6.72;46.86
39613;BME280;25303;48.896;13.342;2023-02-11T13:54:22;94141.81;;;6.73;46.82
39613;BME280;25303;48.896;13.342;2023-02-11T13:57:38;94140.50;;;6.67;47.28
39613;BME280;25303;48.896;13.342;2023-02-11T14:00:46;94144.97;;;6.64;47.13
39613;BME280;25303;48.896;13.342;2023-02-11T14:03:33;94150.00;;;6.65;47.13
39613;BME280;25303;48.896;13.342;2023-02-11T14:06:33;94160.63;;;6.59;47.22
39613;BME280;25303;48.896;13.342;2023-02-11T14:09:42;94150.50;;;6.58;47.37
39613;BME280;25303;48.896;13.342;2023-02-11T14:12:33;94157.03;;;6.49;47.67
39613;BME280;25303;48.896;13.342;2023-02-11T14:15:25;94153.06;;;6.58;47.64
39613;BME280;25303;48.896;13.342;2023-02-11T14:18:38;94147.03;;;6.59;47.67
39613;BME280;25303;48.896;13.342;2023-02-11T14:21:40;94144.34;;;6.60;47.63
39613;BME280;25303;48.896;13.342;2023-02-11T14:24:47;94142.88;;;6.30;48.50
39613;BME280;25303;48.896;13.342;2023-02-11T14:27:38;94151.41;;;6.57;47.54
39613;BME280;25303;48.896;13.342;2023-02-11T14:30:30;94152.94;;;6.59;47.70
39613;BME280;25303;48.896;13.342;2023-02-11T14:33:44;94141.38;;;6.53;48.02
39613;BME280;25303;48.896;13.342;2023-02-11T14:36:46;94132.53;;;6.32;48.51
39613;BME280;25303;48.896;13.342;2023-02-11T14:39:45;94145.66;;;6.40;48.24
39613;BME280;25303;48.896;13.342;2023-02-11T14:42:34;94148.22;;;6.40;48.24
39613;BME280;25303;48.896;13.342;2023-02-11T14:45:23;94146.78;;;6.36;48.26
39613;BME280;25303;48.896;13.342;2023-02-11T14:48:14;94144.09;;;6.25;48.63